createdAt,value
2023-04-03T00:01:11.252Z,1.60
2023-04-03T00:04:14.010Z,1.80
2023-04-03T00:07:18.115Z,1.87
2023-04-03T00:10:21.570Z,2.30
2023-04-03T00:13:25.243Z,2.07
2023-04-03T00:16:27.955Z,1.80
2023-04-03T00:19:30.842Z,1.67
2023-04-03T00:22:34.885Z,1.90
2023-04-03T00:25:38.017Z,2.07
2023-04-03T00:28:40.876Z,1.90
2023-04-03T00:31:43.556Z,2.43
2023-04-03T00:34:46.275Z,2.10
2023-04-03T00:37:52.439Z,2.20
2023-04-03T00:40:55.144Z,2.10
2023-04-03T00:43:57.824Z,5.03
2023-04-03T00:47:00.814Z,4.07
2023-04-03T00:50:04.604Z,4.07
2023-04-03T00:53:11.776Z,3.87
2023-04-03T00:56:19.180Z,3.07
2023-04-03T00:59:27.500Z,3.10
2023-04-03T01:02:30.305Z,2.57
2023-04-03T01:05:33.957Z,2.60
2023-04-03T01:08:38.121Z,2.20
2023-04-03T01:11:41.427Z,2.00
2023-04-03T01:14:45.006Z,2.27
2023-04-03T01:17:50.470Z,2.63
2023-04-03T01:21:25.852Z,2.27
2023-04-03T01:24:40.665Z,2.33
2023-04-03T01:27:43.381Z,2.20
2023-04-03T01:30:52.541Z,2.10
2023-04-03T01:33:57.303Z,2.10
2023-04-03T01:37:00.122Z,2.60
2023-04-03T01:40:04.052Z,2.23
2023-04-03T01:43:06.750Z,3.23
2023-04-03T01:46:09.859Z,3.00
2023-04-03T01:49:16.541Z,2.63
2023-04-03T01:52:19.238Z,2.50
2023-04-03T01:55:24.103Z,2.33
2023-04-03T01:58:26.950Z,2.27
2023-04-03T02:01:29.645Z,2.57
2023-04-03T02:04:33.796Z,2.70
2023-04-03T02:07:38.942Z,3.80
2023-04-03T02:10:41.799Z,3.93
2023-04-03T02:13:44.464Z,4.30
2023-04-03T02:16:47.154Z,3.40
2023-04-03T02:19:51.248Z,3.90
2023-04-03T02:22:53.901Z,3.13
2023-04-03T02:26:08.447Z,3.53
2023-04-03T02:29:11.149Z,3.10
2023-04-03T02:32:13.960Z,3.00
2023-04-03T02:35:18.100Z,2.90
2023-04-03T02:38:20.908Z,2.90
2023-04-03T02:41:33.246Z,3.30
2023-04-03T02:44:36.641Z,3.80
2023-04-03T02:47:39.434Z,4.50
2023-04-03T02:50:44.373Z,4.33
2023-04-03T02:53:47.143Z,4.07
2023-04-03T02:56:49.796Z,3.07
2023-04-03T02:59:52.530Z,4.00
2023-04-03T03:02:55.166Z,5.90
2023-04-03T03:06:07.693Z,4.67
2023-04-03T03:09:10.426Z,3.43
2023-04-03T03:12:13.064Z,3.30
2023-04-03T03:15:16.361Z,3.50
2023-04-03T03:18:19.194Z,3.10
2023-04-03T03:21:23.379Z,2.63
2023-04-03T03:24:26.334Z,2.60
2023-04-03T03:27:29.094Z,2.93
2023-04-03T03:30:31.759Z,2.90
2023-04-03T03:33:35.391Z,2.93
2023-04-03T03:36:39.448Z,3.27
2023-04-03T03:39:42.201Z,2.40
2023-04-03T03:42:44.875Z,3.30
2023-04-03T03:45:52.200Z,4.00
2023-04-03T03:48:59.587Z,3.97
2023-04-03T03:52:03.581Z,4.17
2023-04-03T03:55:06.918Z,4.30
2023-04-03T03:58:09.603Z,5.47
2023-04-03T04:01:13.228Z,9.60
2023-04-03T04:04:16.059Z,11.30
2023-04-03T04:07:23.695Z,7.30
2023-04-03T04:10:28.197Z,6.73
2023-04-03T04:13:30.840Z,7.87
2023-04-03T04:16:36.316Z,7.53
2023-04-03T04:19:39.717Z,6.40
2023-04-03T04:22:44.288Z,6.50
2023-04-03T04:25:47.315Z,8.03
2023-04-03T04:28:49.937Z,9.43
2023-04-03T04:31:52.711Z,10.67
2023-04-03T04:34:55.877Z,9.83
2023-04-03T04:38:00.149Z,8.17
2023-04-03T04:41:02.880Z,8.20
2023-04-03T04:44:05.712Z,7.37
2023-04-03T04:47:08.646Z,7.00
2023-04-03T04:50:12.737Z,5.10
2023-04-03T04:53:16.873Z,7.63
2023-04-03T04:56:19.585Z,9.93
2023-04-03T04:59:24.148Z,8.20
2023-04-03T05:02:29.196Z,9.80
2023-04-03T05:05:31.855Z,8.73
2023-04-03T05:08:36.209Z,7.83
2023-04-03T05:11:38.906Z,11.10
2023-04-03T05:14:41.578Z,6.03
2023-04-03T05:17:44.349Z,5.87
2023-04-03T05:20:47.053Z,5.27
2023-04-03T05:23:51.054Z,8.30
2023-04-03T05:26:53.766Z,14.47
2023-04-03T05:29:56.891Z,11.67
2023-04-03T05:33:03.332Z,8.80
2023-04-03T05:36:07.829Z,9.13
2023-04-03T05:39:12.302Z,7.80
2023-04-03T05:42:14.952Z,6.67
2023-04-03T05:45:18.178Z,5.50
2023-04-03T05:48:20.883Z,5.23
2023-04-03T05:51:35.856Z,5.50
2023-04-03T05:54:40.096Z,4.33
2023-04-03T05:57:45.881Z,5.77
2023-04-03T06:00:48.653Z,6.63
2023-04-03T06:03:51.560Z,5.50
2023-04-03T06:06:56.718Z,5.57
2023-04-03T06:10:01.153Z,6.20
2023-04-03T06:13:03.887Z,5.00
2023-04-03T06:16:10.587Z,4.30
2023-04-03T06:19:14.775Z,4.13
2023-04-03T06:22:17.615Z,3.20
2023-04-03T06:25:22.174Z,4.10
2023-04-03T06:28:28.314Z,4.37
2023-04-03T06:31:31.384Z,3.77
2023-04-03T06:34:34.470Z,4.20
2023-04-03T06:37:37.255Z,4.97
2023-04-03T06:40:41.286Z,4.73
2023-04-03T06:43:43.982Z,4.90
2023-04-03T06:46:47.849Z,4.80
2023-04-03T06:49:50.632Z,4.90
2023-04-03T06:52:53.319Z,4.30
2023-04-03T06:55:57.321Z,2.60
2023-04-03T06:59:00.112Z,2.17
2023-04-03T07:02:04.532Z,1.47
2023-04-03T07:05:08.770Z,1.70
2023-04-03T07:08:11.464Z,1.37
2023-04-03T07:11:15.699Z,1.53
2023-04-03T07:14:26.649Z,1.60
2023-04-03T07:17:29.408Z,1.27
2023-04-03T07:20:32.249Z,1.73
2023-04-03T07:23:35.219Z,0.80
2023-04-03T07:26:42.084Z,1.80
2023-04-03T07:29:45.008Z,0.77
2023-04-03T07:32:48.092Z,0.87
2023-04-03T07:35:51.129Z,1.90
2023-04-03T07:38:53.872Z,1.20
2023-04-03T07:41:58.155Z,1.50
2023-04-03T07:45:02.199Z,1.50
2023-04-03T07:48:05.483Z,1.37
2023-04-03T07:51:08.237Z,1.23
2023-04-03T07:54:10.940Z,1.30
2023-04-03T07:57:14.971Z,1.13
2023-04-03T08:00:18.645Z,1.23
2023-04-03T08:03:21.769Z,1.30
2023-04-03T08:06:37.377Z,1.30
2023-04-03T08:09:47.247Z,1.60
2023-04-03T08:12:52.184Z,1.60
2023-04-03T08:15:54.847Z,0.97
2023-04-03T08:18:57.620Z,1.13
2023-04-03T08:22:02.142Z,1.20
2023-04-03T08:25:05.227Z,1.50
2023-04-03T08:28:09.498Z,1.60
2023-04-03T08:31:14.755Z,2.30
2023-04-03T08:34:18.070Z,1.37
2023-04-03T08:37:21.392Z,1.50
2023-04-03T08:40:24.140Z,2.63
2023-04-03T08:43:37.226Z,1.57
2023-04-03T08:46:50.007Z,1.47
2023-04-03T08:49:55.387Z,1.33
2023-04-03T08:52:59.783Z,1.37
2023-04-03T08:56:07.282Z,1.63
2023-04-03T08:59:17.517Z,1.10
2023-04-03T09:02:28.336Z,1.43
2023-04-03T09:05:41.868Z,1.50
2023-04-03T09:08:51.792Z,1.00
2023-04-03T09:12:10.075Z,1.80
2023-04-03T09:15:27.933Z,0.80
2023-04-03T09:18:47.571Z,1.30
2023-04-03T09:21:50.272Z,1.10
2023-04-03T09:25:02.199Z,1.00
2023-04-03T09:28:10.698Z,1.20
2023-04-03T09:31:21.681Z,1.00
2023-04-03T09:34:28.291Z,1.70
2023-04-03T09:37:42.544Z,0.90
2023-04-03T09:40:47.200Z,1.77
2023-04-03T09:43:55.618Z,0.97
2023-04-03T09:46:59.795Z,1.10
2023-04-03T09:50:21.645Z,1.40
2023-04-03T09:53:30.580Z,1.40
2023-04-03T09:56:33.385Z,1.50
2023-04-03T09:59:36.160Z,1.07
2023-04-03T10:02:41.478Z,1.47
2023-04-03T10:05:44.334Z,1.23
2023-04-03T10:09:02.290Z,1.33
2023-04-03T10:12:07.702Z,1.60
2023-04-03T10:15:14.694Z,1.77
2023-04-03T10:18:33.601Z,1.63
2023-04-03T10:21:45.574Z,1.53
2023-04-03T10:24:56.610Z,0.70
2023-04-03T10:28:03.562Z,1.20
2023-04-03T10:31:13.740Z,1.47
2023-04-03T10:34:23.693Z,1.60
2023-04-03T10:37:33.241Z,1.70
2023-04-03T10:40:45.436Z,1.50
2023-04-03T10:43:56.377Z,1.60
2023-04-03T10:47:08.153Z,1.70
2023-04-03T10:50:28.996Z,1.10
2023-04-03T10:53:36.931Z,1.27
2023-04-03T10:56:43.306Z,1.13
2023-04-03T10:59:50.410Z,2.03
2023-04-03T11:02:57.610Z,0.97
2023-04-03T11:06:03.634Z,1.40
2023-04-03T11:09:13.574Z,1.47
2023-04-03T11:12:20.883Z,1.97
2023-04-03T11:15:25.799Z,1.33
2023-04-03T11:18:34.576Z,0.97
2023-04-03T11:21:44.206Z,1.20
2023-04-03T11:24:58.892Z,1.60
2023-04-03T11:28:04.747Z,1.43
2023-04-03T11:31:24.399Z,1.50
2023-04-03T11:34:37.327Z,1.27
2023-04-03T11:37:45.796Z,1.73
2023-04-03T11:40:49.357Z,1.50
2023-04-03T11:43:59.184Z,1.60
2023-04-03T11:47:03.322Z,1.43
2023-04-03T11:50:07.681Z,1.67
2023-04-03T11:53:33.279Z,0.60
2023-04-03T11:56:36.037Z,1.40
2023-04-03T11:59:39.641Z,0.90
2023-04-03T12:02:53.865Z,1.30
2023-04-03T12:05:59.521Z,1.60
2023-04-03T12:09:04.085Z,1.80
2023-04-03T12:12:29.517Z,0.70
2023-04-03T12:15:54.708Z,1.37
2023-04-03T12:19:01.094Z,0.60
2023-04-03T12:22:11.540Z,1.30
2023-04-03T12:25:51.762Z,0.90
2023-04-03T12:28:56.941Z,1.50
2023-04-03T12:32:11.694Z,1.53
2023-04-03T12:35:23.479Z,1.97
2023-04-03T12:38:42.565Z,1.10
2023-04-03T12:41:57.757Z,1.50
2023-04-03T12:45:12.215Z,1.67
2023-04-03T12:48:18.555Z,1.70
2023-04-03T12:51:24.457Z,1.40
2023-04-03T12:54:32.621Z,1.13
2023-04-03T12:57:37.535Z,0.93
2023-04-03T13:00:40.725Z,0.50
2023-04-03T13:03:47.823Z,1.53
2023-04-03T13:06:51.590Z,1.87
2023-04-03T13:10:04.035Z,2.43
2023-04-03T13:13:11.831Z,1.40
2023-04-03T13:16:18.666Z,1.13
2023-04-03T13:19:21.572Z,1.27
2023-04-03T13:22:30.937Z,0.97
2023-04-03T13:25:36.163Z,0.87
2023-04-03T13:28:42.805Z,1.00
2023-04-03T13:31:45.955Z,0.87
2023-04-03T13:34:48.865Z,1.10
2023-04-03T13:37:57.275Z,0.90
2023-04-03T13:41:04.100Z,1.37
2023-04-03T13:44:36.826Z,1.13
2023-04-03T13:47:42.337Z,1.30
2023-04-03T13:51:02.191Z,0.90
2023-04-03T13:54:20.058Z,0.67
2023-04-03T13:57:23.653Z,0.70
2023-04-03T14:00:38.280Z,1.40
2023-04-03T14:03:46.777Z,1.57
2023-04-03T14:06:50.582Z,0.90
2023-04-03T14:09:54.221Z,0.93
2023-04-03T14:12:56.913Z,1.30
2023-04-03T14:16:15.217Z,1.10
2023-04-03T14:19:24.553Z,1.10
2023-04-03T14:22:30.300Z,0.63
2023-04-03T14:25:33.025Z,1.07
2023-04-03T14:28:36.082Z,1.40
2023-04-03T14:31:40.402Z,1.40
2023-04-03T14:34:43.992Z,1.10
2023-04-03T14:37:47.499Z,0.63
2023-04-03T14:40:51.620Z,1.63
2023-04-03T14:43:54.679Z,1.07
2023-04-03T14:46:58.788Z,1.30
2023-04-03T14:50:02.408Z,1.00
2023-04-03T14:53:05.898Z,1.10
2023-04-03T14:56:14.183Z,1.20
2023-04-03T14:59:19.091Z,1.23
2023-04-03T15:02:30.698Z,1.77
2023-04-03T15:05:34.120Z,0.83
2023-04-03T15:08:37.042Z,6.03
2023-04-03T15:11:39.735Z,4.60
2023-04-03T15:14:51.890Z,1.80
2023-04-03T15:17:59.062Z,2.10
2023-04-03T15:21:02.004Z,2.00
2023-04-03T15:24:05.254Z,1.00
2023-04-03T15:27:08.128Z,1.40
2023-04-03T15:30:16.396Z,2.27
2023-04-03T15:33:20.901Z,27.93
2023-04-03T15:39:32.189Z,1.60
2023-04-03T15:42:34.971Z,0.93
2023-04-03T15:45:39.540Z,3.87
2023-04-03T15:48:43.845Z,1.10
2023-04-03T15:51:46.663Z,1.97
2023-04-03T15:54:49.274Z,3.63
2023-04-03T15:57:51.997Z,1.80
2023-04-03T16:00:54.996Z,2.30
2023-04-03T16:03:59.163Z,1.57
2023-04-03T16:07:03.336Z,1.47
2023-04-03T16:10:06.686Z,1.40
2023-04-03T16:13:09.449Z,1.40
2023-04-03T16:16:12.372Z,1.53
2023-04-03T16:19:16.626Z,1.00
2023-04-03T16:22:19.288Z,1.50
2023-04-03T16:25:22.332Z,0.90
2023-04-03T16:28:24.954Z,1.00
2023-04-03T16:31:29.296Z,1.40
2023-04-03T16:34:33.756Z,1.40
2023-04-03T16:37:36.411Z,1.67
2023-04-03T16:40:39.079Z,1.97
2023-04-03T16:46:49.378Z,1.73
2023-04-03T16:49:53.547Z,1.50
2023-04-03T16:52:56.399Z,1.70
2023-04-03T16:55:59.900Z,1.43
2023-04-03T16:59:02.628Z,1.97
2023-04-03T17:02:06.209Z,1.20
2023-04-03T17:05:10.671Z,1.10
2023-04-03T17:08:14.812Z,2.03
2023-04-03T17:11:17.757Z,1.03
2023-04-03T17:14:20.642Z,1.23
2023-04-03T17:17:26.220Z,1.40
2023-04-03T17:20:31.390Z,4.43
2023-04-03T17:23:36.306Z,1.60
2023-04-03T17:26:39.113Z,1.50
2023-04-03T17:29:41.884Z,2.57
2023-04-03T17:32:44.670Z,2.20
2023-04-03T17:35:48.982Z,1.73
2023-04-03T17:38:52.061Z,1.40
2023-04-03T17:41:55.862Z,1.90
2023-04-03T17:44:58.631Z,1.67
2023-04-03T17:48:02.294Z,2.30
2023-04-03T17:51:07.514Z,1.43
2023-04-03T17:54:10.937Z,1.67
2023-04-03T17:57:13.628Z,1.30
2023-04-03T18:00:17.521Z,3.33
2023-04-03T18:03:20.275Z,1.73
2023-04-03T18:06:28.078Z,1.80
2023-04-03T18:09:34.333Z,1.73
2023-04-03T18:12:37.638Z,1.10
2023-04-03T18:15:45.650Z,8.70
2023-04-03T18:18:50.708Z,2.83
2023-04-03T18:22:02.271Z,2.87
2023-04-03T18:25:05.772Z,2.40
2023-04-03T18:28:08.940Z,2.10
2023-04-03T18:31:16.050Z,2.80
2023-04-03T18:34:18.794Z,2.77
2023-04-03T18:37:24.209Z,3.70
2023-04-03T18:40:27.030Z,2.30
2023-04-03T18:43:30.037Z,2.37
2023-04-03T18:46:33.308Z,1.90
2023-04-03T18:49:39.023Z,2.30
2023-04-03T18:52:43.048Z,1.80
2023-04-03T18:55:46.803Z,1.67
2023-04-03T18:58:49.610Z,2.73
2023-04-03T19:01:52.551Z,2.63
2023-04-03T19:04:56.302Z,1.57
2023-04-03T19:08:00.480Z,2.50
2023-04-03T19:11:03.778Z,2.93
2023-04-03T19:14:16.226Z,4.00
2023-04-03T19:17:19.761Z,1.13
2023-04-03T19:20:22.595Z,1.93
2023-04-03T19:23:27.663Z,1.37
2023-04-03T19:26:32.102Z,1.17
2023-04-03T19:29:34.787Z,1.17
2023-04-03T19:32:37.567Z,1.07
2023-04-03T19:35:41.684Z,1.20
2023-04-03T19:38:46.266Z,1.00
2023-04-03T19:41:49.696Z,1.10
2023-04-03T19:44:52.805Z,1.13
2023-04-03T19:47:55.918Z,0.43
2023-04-03T19:50:58.683Z,1.20
2023-04-03T19:54:03.547Z,0.53
2023-04-03T19:57:07.151Z,1.10
2023-04-03T20:00:11.479Z,1.13
2023-04-03T20:03:14.771Z,1.30
2023-04-03T20:06:17.729Z,1.07
2023-04-03T20:09:22.398Z,1.10
2023-04-03T20:12:25.212Z,1.20
2023-04-03T20:15:29.583Z,1.00
2023-04-03T20:18:32.684Z,1.20
2023-04-03T20:21:36.178Z,1.13
2023-04-03T20:24:40.528Z,1.70
2023-04-03T20:27:43.744Z,1.70
2023-04-03T20:30:48.168Z,1.47
2023-04-03T20:33:51.532Z,1.40
2023-04-03T20:36:55.248Z,1.30
2023-04-03T20:39:59.348Z,1.57
2023-04-03T20:43:04.111Z,1.80
2023-04-03T20:46:06.826Z,2.30
2023-04-03T20:49:09.489Z,1.67
2023-04-03T20:52:12.134Z,1.40
2023-04-03T20:55:16.382Z,1.70
2023-04-03T20:58:19.823Z,2.00
2023-04-03T21:01:24.845Z,1.97
2023-04-03T21:04:33.063Z,1.80
2023-04-03T21:08:14.011Z,2.63
2023-04-03T21:11:54.236Z,2.20
2023-04-03T21:15:34.210Z,2.30
2023-04-03T21:18:57.333Z,3.80
2023-04-03T21:22:00.998Z,2.10
2023-04-03T21:25:03.862Z,2.10
2023-04-03T21:28:06.830Z,1.40
2023-04-03T21:31:09.563Z,2.83
2023-04-03T21:34:14.065Z,2.67
2023-04-03T21:37:17.321Z,1.83
2023-04-03T21:40:20.871Z,1.90
2023-04-03T21:43:23.601Z,1.73
2023-04-03T21:46:26.382Z,1.90
2023-04-03T21:49:30.370Z,1.97
2023-04-03T21:52:33.063Z,1.83
2023-04-03T21:55:35.873Z,2.57
2023-04-03T21:58:38.565Z,1.63
2023-04-03T22:01:41.514Z,1.60
2023-04-03T22:04:47.080Z,1.57
2023-04-03T22:07:50.035Z,1.77
2023-04-03T22:10:54.014Z,2.10
2023-04-03T22:13:57.031Z,1.80
2023-04-03T22:17:00.381Z,1.60
2023-04-03T22:20:04.741Z,2.03
2023-04-03T22:23:07.482Z,1.83
2023-04-03T22:26:11.740Z,1.60
2023-04-03T22:29:14.411Z,1.27
2023-04-03T22:32:17.113Z,1.70
2023-04-03T22:35:21.423Z,1.90
2023-04-03T22:38:24.273Z,1.30
2023-04-03T22:41:27.128Z,1.57
2023-04-03T22:44:34.987Z,2.10
2023-04-03T22:47:39.100Z,1.80
2023-04-03T22:50:43.960Z,2.00
2023-04-03T22:53:46.605Z,2.10
2023-04-03T22:56:49.257Z,1.70
2023-04-03T22:59:51.960Z,1.90
2023-04-03T23:02:54.759Z,2.00
2023-04-03T23:05:58.807Z,1.87
2023-04-03T23:09:02.414Z,1.73
2023-04-03T23:12:05.679Z,1.40
2023-04-03T23:15:09.508Z,2.00
2023-04-03T23:18:12.474Z,1.73
2023-04-03T23:21:16.639Z,1.47
2023-04-03T23:24:20.196Z,2.00
2023-04-03T23:27:22.932Z,2.30
2023-04-03T23:30:25.656Z,1.53
2023-04-03T23:33:28.748Z,1.50
2023-04-03T23:36:32.781Z,1.90
2023-04-03T23:39:35.657Z,1.90
2023-04-03T23:42:40.528Z,2.30
2023-04-03T23:45:43.231Z,2.23
2023-04-03T23:48:46.016Z,3.00
2023-04-03T23:51:50.097Z,2.00
2023-04-03T23:54:53.465Z,1.90
2023-04-03T23:57:56.235Z,2.10
